Pays
Station

 

Conditions  météo  pour  Burns, Burns Municipal Airport  -  Etats-Unis    Etats-Unis

  
1 °C
    
 
 

METAR pour Burns, Burns Municipal Airport :

KBNO 212153Z AUTO 27015G20KT 10SM CLR 01/M07 A3013 RMK AO2 SLP226 T00061067

 

Voici le bulletin pour Burns, Burns Municipal Airport - Etats-Unis.
 
Le bulletin a été fait il y a 6 minutes, à 21:53 UTC .
Le vent soufflait à la vitesse de 7.7 mètres par seconde avec des rafales jusqu'à 10.3 mètres par seconde de Ouest (270°).
 
La température était de 1 °C, avec un point de rosée à -7 °C.
La température ressentie était de -5 °C.
 
La pression atmosphérique était de 1020 hPa.
L'humidité relative était de 55.0%.
 
Le ciel était clair.
 
La visibilité globale était de 16.1 kilomètres.
 

 
 
 

Pays :   A   B   C   D   E   F   G   H   I   J   K   L   M   N   O   P   Q   R   S   T   U   V   W   Y   Z

 

Partenaires :  Info Météo avec Met'info
Météo Marine avec MeteoMarine.net
Infos Site  |  Infos Légales  |  Crédits  |  Confidentialité
Contactez-nous  |  Ajouter aux favoris
© 2013-2019 METAR - Tous droits réservés